עמוד ראשי
METAR-TAF:

METAR-TAF

שדות תעופה :

פאגו פאגו, איים קטנים שלחוף ארצות הברית

קו רוחב: 14-20S, קו אורך: 170-43W, גובה: 3מטר

תצפית מזג אוויר נוכחית

הדו"ח נערך לפני 28דקות, בשעה 09:51 UTC
רוח 10קשר מכיוון מזרח
טמפרטורת 28 צלסיוס
לחות 84%
לחץ 1013 hPa
ראות: 16.1קילומטר
עננים פזורים בגובה 1600רגל , קומולוס מיגדלי.
עננים בינוניים בגובה 4000רגל

METAR: NSTU 150951Z 08010KT 10SM SCT016TCU BKN040 28/25 A2990 RMK TCU ALQDS SLP127 T02750252

זמן: 23:19 (10:19 UTC)

תחזית

הדו"ח נערך לפני 4 שעות ו 50דקות, בשעה 05:29 UTC
תחזית בתוקף מ 15 ב 06 UTC עד 16 ב 06 UTC
רוח 15קשר מכיוון מזרח/דרום-מזרח
ראות: 10קילומטר
עננים פזורים בגובה 1500רגל
עננים פזורים בגובה 4000רגל
עננים בינוניים בגובה 9000רגל
מ 16 ב 0000UTC
רוח 12קשר מכיוון מזרח
ראות: 10קילומטר
עננים פזורים בגובה 2500רגל
עננים בינוניים בגובה 4000רגל
מעונן בגובה 9000רגל
ממטרים במרחב,

TAF: NSTU 150529Z 1506/1606 12015KT P6SM SCT015 SCT040 BKN090 FM160000 09012KT P6SM VCSH SCT025 BKN040 OVC090

תצפיות ותחזיות מזג אוויר לגבי יותר מ- 4,000 שדות תעופה ברחבי העולם. דוחות METAR ו- TAF.

התחנות הזמינות מסומנות בנקודות צהובות ואדומות על גבי המפה.

העבר את העכבר לנקודה הצבעונית על מנת לראות את שם התחנה.

לאחר מכן, לחץ כדי לראות את תוכן ואת תחזיות מזג האוויר.

כדי לשנות את המפה: לחץ על הכפתורים הירוקים עם הפלוס השחור כדי להתקרב; על הכפתור הירוק עם המקף כדי להתרחק; או בחיצים הירוקים למפות סמוכות.


METAR-TAF: